Time;durP1;ratioP1;P1;durP2;ratioP2;P2;SDS_P1;SDS_P2;PMS_P1;PMS_P2;Temp;Humidity;BMP_temperature;BMP_pressure;BME280_temperature;BME280_humidity;BME280_pressure;Samples;Min_cycle;Max_cycle;Signal;HPM_P1;HPM_P2
2021/07/01 00:00:14;;;;;;;;;;;14.30;99.90;;;-145.59;100.00;63944.34;5057998;28;20286;-65
2021/07/01 00:02:41;;;;;;;;;;;14.30;99.90;;;-145.59;100.00;63944.34;5041589;28;20006;-65
2021/07/01 00:05:08;;;;;;;;;;;14.30;99.90;;;-145.59;100.00;63944.34;5041236;28;19920;-62
2021/07/01 00:07:34;;;;;;;;;;;14.30;99.90;;;-145.59;100.00;63944.34;5024822;28;19921;-63
2021/07/01 00:09:59;;;;;;;;;;;14.20;99.90;;;-145.59;100.00;63944.34;5024609;28;19932;-65
2021/07/01 00:12:25;;;;;;;;;;;14.30;99.90;;;-145.59;100.00;63944.34;5057794;28;19917;-63
2021/07/01 00:14:51;;;;;;;;;;;14.20;99.90;;;-145.59;100.00;63944.34;5057462;28;19927;-62
2021/07/01 00:17:17;;;;;;;;;;;14.20;99.90;;;-145.59;100.00;63944.34;5091212;28;19920;-62
2021/07/01 00:19:42;;;;;;;;;;;14.20;99.90;;;-145.59;100.00;63944.34;5040790;28;19920;-63
2021/07/01 00:22:08;;;;;;;;;;;14.20;99.90;;;-145.59;100.00;63944.34;5056556;28;19928;-62
2021/07/01 00:24:34;;;;;;;;;;;14.30;99.90;;;-145.59;100.00;63944.34;5041074;28;19924;-73
2021/07/01 00:27:00;;;;;;;;;;;14.30;99.90;;;-145.59;100.00;63944.34;5040754;28;19928;-71
2021/07/01 00:29:25;;;;;;;;;;;14.30;99.90;;;-145.59;100.00;63944.34;5057378;28;19920;-72
2021/07/01 00:31:51;;;;;;;;;;;14.30;99.90;;;-145.59;100.00;63944.34;5040720;28;19920;-73
2021/07/01 00:34:17;;;;;;;;;;;14.30;99.90;;;-145.59;100.00;63944.34;5074324;28;19965;-73
2021/07/01 00:36:42;;;;;;;;;;;14.30;99.90;;;-145.59;100.00;63944.34;5090645;28;19921;-73
2021/07/01 00:39:08;;;;;;;;;;;14.40;99.90;;;-145.59;100.00;63944.34;5090710;28;19928;-72
2021/07/01 00:41:34;;;;;;;;;;;14.50;99.90;;;-145.59;100.00;63944.34;5073738;28;20343;-73
2021/07/01 00:44:01;;;;;;;;;;;14.50;99.90;;;-145.59;100.00;63944.34;5024014;28;19938;-74
2021/07/01 00:46:29;;;;;;;;;;;14.50;99.90;;;-145.59;100.00;63944.34;5040996;28;20351;-74
2021/07/01 00:48:54;;;;;;;;;;;14.50;99.90;;;-145.59;100.00;63944.34;5041290;28;20314;-73
2021/07/01 00:51:20;;;;;;;;;;;14.50;99.90;;;-145.59;100.00;63944.34;5075003;28;19947;-72
2021/07/01 00:53:46;;;;;;;;;;;14.50;99.90;;;-145.59;100.00;63944.34;5023722;28;19926;-69
2021/07/01 00:56:14;;;;;;;;;;;14.60;99.90;;;-145.59;100.00;63944.34;5040181;28;19917;-71
2021/07/01 00:58:40;;;;;;;;;;;14.60;99.90;;;-145.59;100.00;63944.34;5040406;28;19917;-65
2021/07/01 01:01:06;;;;;;;;;;;14.60;99.90;;;-145.59;100.00;63944.34;5056914;28;19916;-69
2021/07/01 01:03:36;;;;;;;;;;;14.60;99.90;;;-145.59;100.00;63944.34;5040066;28;20478;-66
2021/07/01 01:06:04;;;;;;;;;;;14.60;99.90;;;-145.59;100.00;63944.34;5074443;28;19921;-68
2021/07/01 01:08:30;;;;;;;;;;;14.60;99.90;;;-145.59;100.00;63944.34;5074912;28;20312;-67
2021/07/01 01:10:55;;;;;;;;;;;14.60;99.90;;;-145.59;100.00;63944.34;5040147;28;19970;-69
2021/07/01 01:13:24;;;;;;;;;;;14.60;99.90;;;-145.59;100.00;63944.34;5056453;28;20006;-64
2021/07/01 01:15:58;;;;;;;;;;;14.70;99.90;;;-145.59;100.00;63944.34;5057107;28;19924;-62
2021/07/01 01:18:25;;;;;;;;;;;14.60;99.90;;;-145.59;100.00;63944.34;5039943;28;19920;-64
2021/07/01 01:20:53;;;;;;;;;;;14.60;99.90;;;-145.59;100.00;63944.34;5074120;28;19938;-62
2021/07/01 01:23:19;;;;;;;;;;;14.50;99.90;;;-145.59;100.00;63944.34;5074067;28;20010;-67
2021/07/01 01:25:50;;;;;;;;;;;14.50;99.90;;;-145.59;100.00;63944.34;5039708;28;19952;-62
2021/07/01 01:28:16;;;;;;;;;;;14.40;99.90;;;-145.59;100.00;63944.34;5039692;28;19920;-65
2021/07/01 01:30:42;;;;;;;;;;;14.40;99.90;;;-145.59;100.00;63944.34;5056348;28;20374;-61
2021/07/01 01:33:09;;;;;;;;;;;14.50;99.90;;;-145.59;100.00;63944.34;5022973;28;19924;-64
2021/07/01 01:35:35;;;;;;;;;;;14.40;99.90;;;-145.59;100.00;63944.34;5089102;28;19920;-65
2021/07/01 01:38:02;;;;;;;;;;;14.40;99.90;;;-145.59;100.00;63944.34;5055871;28;19932;-65
2021/07/01 01:40:28;;;;;;;;;;;14.50;99.90;;;-145.59;100.00;63944.34;5055837;28;19951;-65
2021/07/01 01:42:53;;;;;;;;;;;14.50;99.90;;;-145.59;100.00;63944.34;5056255;28;19920;-64
2021/07/01 01:45:19;;;;;;;;;;;14.50;99.90;;;-145.59;100.00;63944.34;5039535;28;19927;-64
2021/07/01 01:47:47;;;;;;;;;;;14.50;99.90;;;-145.59;100.00;63944.34;5055690;28;19928;-66
2021/07/01 01:50:20;;;;;;;;;;;14.50;99.90;;;-145.59;100.00;63944.34;5056039;28;19923;-63
2021/07/01 01:52:46;;;;;;;;;;;14.50;99.90;;;-145.59;100.00;63944.34;5022673;28;20272;-64
2021/07/01 01:55:13;;;;;;;;;;;14.50;99.90;;;-145.59;100.00;63944.34;5038933;28;19942;-62
2021/07/01 01:57:47;;;;;;;;;;;14.60;99.90;;;-145.59;100.00;63944.34;5039211;28;19917;-63
2021/07/01 02:00:15;;;;;;;;;;;14.50;99.90;;;-145.59;100.00;63944.34;5039095;28;19958;-63
2021/07/01 02:02:41;;;;;;;;;;;14.60;99.90;;;-145.59;100.00;63944.34;5055905;28;19916;-65
2021/07/01 02:05:08;;;;;;;;;;;14.60;99.90;;;-145.59;100.00;63944.34;5072103;28;19917;-62
2021/07/01 02:07:34;;;;;;;;;;;14.60;99.90;;;-145.59;100.00;63944.34;5055609;28;19975;-62
2021/07/01 02:10:05;;;;;;;;;;;14.70;99.90;;;-145.59;100.00;63944.34;5038770;28;19924;-63
2021/07/01 02:12:32;;;;;;;;;;;14.70;99.90;;;-145.59;100.00;63944.34;5039272;28;19920;-62
2021/07/01 02:14:58;;;;;;;;;;;14.60;99.90;;;-145.59;100.00;63944.34;5055475;28;20375;-66
2021/07/01 02:17:24;;;;;;;;;;;14.70;99.90;;;-145.59;100.00;63944.34;5055360;28;19964;-63
2021/07/01 02:19:50;;;;;;;;;;;14.70;99.90;;;-145.59;100.00;63944.34;5055502;28;19925;-64
2021/07/01 02:22:16;;;;;;;;;;;14.70;99.90;;;-145.59;100.00;63944.34;5038904;28;20325;-63
2021/07/01 02:24:43;;;;;;;;;;;14.70;99.90;;;-145.59;100.00;63944.34;5038717;28;19921;-64
2021/07/01 02:27:09;;;;;;;;;;;14.70;99.90;;;-145.59;100.00;63944.34;5055481;28;19917;-64
2021/07/01 02:29:35;;;;;;;;;;;14.60;99.90;;;-145.59;100.00;63944.34;5055437;28;19921;-69
2021/07/01 02:32:02;;;;;;;;;;;14.70;99.90;;;-145.59;100.00;63944.34;5055460;28;19960;-66
2021/07/01 02:34:28;;;;;;;;;;;14.60;99.90;;;-145.59;100.00;63944.34;5038977;28;19928;-69
2021/07/01 02:36:54;;;;;;;;;;;14.50;99.90;;;-145.59;100.00;63944.34;5073356;28;20367;-69
2021/07/01 02:39:20;;;;;;;;;;;14.60;99.90;;;-145.59;100.00;63944.34;5055250;28;19966;-70
2021/07/01 02:41:46;;;;;;;;;;;14.50;99.90;;;-145.59;100.00;63944.34;5038464;28;20010;-68
2021/07/01 02:44:12;;;;;;;;;;;14.50;99.90;;;-145.59;100.00;63944.34;5073018;28;19924;-67
2021/07/01 02:46:37;;;;;;;;;;;14.50;99.90;;;-145.59;100.00;63944.34;5024144;28;19924;-70
2021/07/01 02:49:03;;;;;;;;;;;14.50;99.90;;;-145.59;100.00;63944.34;5059173;28;19926;-71
2021/07/01 02:51:29;;;;;;;;;;;14.50;99.90;;;-145.59;100.00;63944.34;5042489;28;19923;-70
2021/07/01 02:53:55;;;;;;;;;;;14.50;99.90;;;-145.59;100.00;63944.34;5042533;28;19920;-68
2021/07/01 02:56:21;;;;;;;;;;;14.50;99.90;;;-145.59;100.00;63944.34;5059168;28;19941;-71
2021/07/01 02:58:49;;;;;;;;;;;14.40;99.90;;;-145.59;100.00;63944.34;5059806;28;19920;-66
2021/07/01 03:01:15;;;;;;;;;;;14.40;99.90;;;-145.59;100.00;63944.34;5059006;28;19920;-67
2021/07/01 03:03:41;;;;;;;;;;;14.40;99.90;;;-145.59;100.00;63944.34;5059314;28;20290;-64
2021/07/01 03:06:09;;;;;;;;;;;14.40;99.90;;;-145.59;100.00;63944.34;5058886;28;19912;-65
2021/07/01 03:08:34;;;;;;;;;;;14.40;99.90;;;-145.59;100.00;63944.34;5059204;28;19917;-69
2021/07/01 03:11:00;;;;;;;;;;;14.40;99.90;;;-145.59;100.00;63944.34;5025682;28;19978;-67
2021/07/01 03:13:26;;;;;;;;;;;14.40;99.90;;;-145.59;100.00;63944.34;5059183;28;19916;-68
2021/07/01 03:15:52;;;;;;;;;;;14.40;99.90;;;-145.59;100.00;63944.34;5076640;28;19923;-64
2021/07/01 03:18:17;;;;;;;;;;;14.40;99.90;;;-145.59;100.00;63944.34;5058848;28;19946;-68
2021/07/01 03:20:43;;;;;;;;;;;14.40;99.90;;;-145.59;100.00;63944.34;5076550;28;19924;-67
2021/07/01 03:23:09;;;;;;;;;;;14.40;99.90;;;-145.59;100.00;63944.34;5058782;28;19916;-62
2021/07/01 03:25:35;;;;;;;;;;;14.40;99.90;;;-145.59;100.00;63944.34;5041765;28;20372;-63
2021/07/01 03:28:00;;;;;;;;;;;14.40;99.90;;;-145.59;100.00;63944.34;5058437;28;19926;-66
2021/07/01 03:30:26;;;;;;;;;;;14.40;99.90;;;-145.59;100.00;63944.34;5076205;28;19916;-64
2021/07/01 03:32:52;;;;;;;;;;;14.40;99.90;;;-145.59;100.00;63944.34;5059226;28;19917;-69
2021/07/01 03:35:17;;;;;;;;;;;14.40;99.90;;;-145.59;100.00;63944.34;5092113;28;19948;-66
2021/07/01 03:37:43;;;;;;;;;;;14.40;99.90;;;-145.59;100.00;63944.34;5076205;28;19920;-63
2021/07/01 03:40:10;;;;;;;;;;;14.40;99.90;;;-145.59;100.00;63944.34;5074926;28;19977;-66
2021/07/01 03:42:36;;;;;;;;;;;14.40;99.90;;;-145.59;100.00;63944.34;5042077;28;20348;-64
2021/07/01 03:45:04;;;;;;;;;;;14.40;99.90;;;-145.59;100.00;63944.34;5041433;28;19920;-66
2021/07/01 03:47:30;;;;;;;;;;;14.40;99.90;;;-145.59;100.00;63944.34;5075898;28;19937;-65
2021/07/01 03:49:55;;;;;;;;;;;14.40;99.90;;;-145.59;100.00;63944.34;5058087;28;20439;-65
2021/07/01 03:52:21;;;;;;;;;;;14.50;99.90;;;-145.59;100.00;63944.34;5075902;28;19927;-67
2021/07/01 03:54:47;;;;;;;;;;;14.50;99.90;;;-145.59;100.00;63944.34;5091552;28;19925;-68
2021/07/01 03:57:13;;;;;;;;;;;14.50;99.90;;;-145.59;100.00;63944.34;5074392;28;19966;-64
2021/07/01 03:59:38;;;;;;;;;;;14.50;99.90;;;-145.59;100.00;63944.34;5057809;28;19935;-66
2021/07/01 04:02:04;;;;;;;;;;;14.60;99.90;;;-145.59;100.00;63944.34;5041125;28;19917;-65
2021/07/01 04:04:30;;;;;;;;;;;14.60;99.90;;;-145.59;100.00;63944.34;5075596;28;19928;-67
2021/07/01 04:06:55;;;;;;;;;;;14.60;99.90;;;-145.59;100.00;63944.34;5074446;28;19927;-67
2021/07/01 04:09:21;;;;;;;;;;;14.60;99.90;;;-145.59;100.00;63944.34;5057682;28;19921;-68
2021/07/01 04:11:47;;;;;;;;;;;14.70;99.90;;;-145.59;100.00;63944.34;5040879;28;20386;-69
2021/07/01 04:14:16;;;;;;;;;;;14.70;99.90;;;-145.59;100.00;63944.34;5075603;28;19923;-65
2021/07/01 04:16:42;;;;;;;;;;;14.70;99.90;;;-145.59;100.00;63944.34;5090735;28;20031;-65
2021/07/01 04:19:07;;;;;;;;;;;14.70;99.90;;;-145.59;100.00;63944.34;5074415;28;19946;-67
2021/07/01 04:21:33;;;;;;;;;;;14.70;99.90;;;-145.59;100.00;63944.34;5040841;28;20440;-70
2021/07/01 04:23:59;;;;;;;;;;;14.90;99.90;;;-145.59;100.00;63944.34;5057382;28;19922;-70
2021/07/01 04:26:26;;;;;;;;;;;14.80;99.90;;;-145.59;100.00;63944.34;5057503;28;19927;-68
2021/07/01 04:28:52;;;;;;;;;;;14.80;99.90;;;-145.59;100.00;63944.34;5024880;28;20283;-67
2021/07/01 04:31:19;;;;;;;;;;;14.80;99.90;;;-145.59;100.00;63944.34;5075284;28;19997;-64
2021/07/01 04:33:45;;;;;;;;;;;14.80;99.90;;;-145.59;100.00;63944.34;5040717;28;19917;-62
2021/07/01 04:36:10;;;;;;;;;;;14.90;99.90;;;-145.59;100.00;63944.34;5040439;28;19942;-62
2021/07/01 04:38:36;;;;;;;;;;;14.90;99.90;;;-145.59;100.00;63944.34;5053538;28;19931;-68
2021/07/01 04:41:02;;;;;;;;;;;15.00;99.90;;;-145.59;100.00;63944.34;5036881;28;20277;-69
2021/07/01 04:43:27;;;;;;;;;;;15.00;99.90;;;-145.59;100.00;63944.34;5037063;28;19928;-63
2021/07/01 04:45:53;;;;;;;;;;;15.00;99.90;;;-145.59;100.00;63944.34;5055067;28;19974;-64
2021/07/01 04:48:19;;;;;;;;;;;15.00;99.90;;;-145.59;100.00;63944.34;5054345;28;20019;-63
2021/07/01 04:50:44;;;;;;;;;;;15.00;99.90;;;-145.59;100.00;63944.34;5054741;28;20275;-62
2021/07/01 04:53:10;;;;;;;;;;;15.00;99.90;;;-145.59;100.00;63944.34;5055225;28;19921;-64
2021/07/01 04:55:36;;;;;;;;;;;14.90;99.90;;;-145.59;100.00;63944.34;5053624;28;20378;-66
2021/07/01 04:58:02;;;;;;;;;;;15.00;99.90;;;-145.59;100.00;63944.34;5053338;28;19925;-66
2021/07/01 05:00:27;;;;;;;;;;;15.00;99.90;;;-145.59;100.00;63944.34;5053565;28;20424;-62
2021/07/01 05:02:53;;;;;;;;;;;15.10;99.90;;;-145.59;100.00;63944.34;5020288;28;19927;-66
2021/07/01 05:05:19;;;;;;;;;;;15.10;99.90;;;-145.59;100.00;63944.34;5053328;28;20446;-67
2021/07/01 05:07:46;;;;;;;;;;;15.10;99.90;;;-145.59;100.00;63944.34;5036756;28;19927;-64
2021/07/01 05:10:14;;;;;;;;;;;15.20;99.90;;;-145.59;100.00;63944.34;5052562;28;20020;-67
2021/07/01 05:12:40;;;;;;;;;;;15.30;99.90;;;-145.59;100.00;63944.34;5036719;28;19917;-67
2021/07/01 05:15:06;;;;;;;;;;;15.40;99.90;;;-145.59;100.00;63944.34;5054656;28;19927;-69
2021/07/01 05:17:35;;;;;;;;;;;15.50;99.90;;;-145.59;100.00;63944.34;5054177;28;19963;-71
2021/07/01 05:20:01;;;;;;;;;;;15.50;99.90;;;-145.59;100.00;63944.34;5053111;28;19917;-71
2021/07/01 05:22:27;;;;;;;;;;;15.60;99.90;;;-145.59;100.00;63944.34;5036701;28;20402;-71
2021/07/01 05:24:53;;;;;;;;;;;15.60;99.90;;;-145.59;100.00;63944.34;5053018;28;19921;-70
2021/07/01 05:27:18;;;;;;;;;;;15.70;99.90;;;-145.59;100.00;63944.34;5069515;28;19921;-70
2021/07/01 05:29:44;;;;;;;;;;;15.70;99.90;;;-145.59;100.00;63944.34;5052861;28;19935;-72
2021/07/01 05:32:10;;;;;;;;;;;15.80;99.90;;;-145.59;100.00;63944.34;5054250;28;20436;-71
2021/07/01 05:34:36;;;;;;;;;;;15.80;99.90;;;-145.59;100.00;63944.34;5036050;28;19928;-71
2021/07/01 05:37:02;;;;;;;;;;;15.80;99.90;;;-145.59;100.00;63944.34;5052742;28;19921;-70
2021/07/01 05:39:28;;;;;;;;;;;15.80;99.90;;;-145.59;100.00;63944.34;5052615;28;20385;-70
2021/07/01 05:41:53;;;;;;;;;;;15.90;99.90;;;-145.59;100.00;63944.34;5036012;28;19924;-72
2021/07/01 05:44:19;;;;;;;;;;;15.90;99.90;;;-145.59;100.00;63944.34;5052739;28;19928;-63
2021/07/01 05:46:45;;;;;;;;;;;15.90;99.90;;;-145.59;100.00;63944.34;5052514;28;19970;-65
2021/07/01 05:49:12;;;;;;;;;;;15.80;99.90;;;-145.59;100.00;63944.34;5053721;28;19931;-66
2021/07/01 05:51:39;;;;;;;;;;;15.90;99.90;;;-145.59;100.00;63944.34;5036093;28;20402;-63
2021/07/01 05:56:36;;;;;;;;;;;15.90;99.90;;;-145.59;100.00;63944.34;5036018;28;19975;-63
2021/07/01 05:59:07;;;;;;;;;;;15.90;99.90;;;-145.59;100.00;63944.34;5036513;28;20023;-63
2021/07/01 06:01:33;;;;;;;;;;;16.10;99.90;;;-145.59;100.00;63944.34;5035849;28;19970;-65
2021/07/01 06:03:59;;;;;;;;;;;16.10;99.90;;;-145.59;100.00;63944.34;5053550;28;19970;-65
2021/07/01 06:06:25;;;;;;;;;;;16.20;99.90;;;-145.59;100.00;63944.34;5035659;28;19921;-67
2021/07/01 06:08:51;;;;;;;;;;;16.20;99.90;;;-145.59;100.00;63944.34;5035635;28;20440;-63
2021/07/01 06:11:16;;;;;;;;;;;16.30;99.90;;;-145.59;100.00;63944.34;5035721;28;20498;-67
2021/07/01 06:13:43;;;;;;;;;;;16.20;99.90;;;-145.59;100.00;63944.34;5052284;28;19921;-65
2021/07/01 06:16:14;;;;;;;;;;;16.30;99.90;;;-145.59;100.00;63944.34;5052462;28;19956;-66
2021/07/01 06:18:40;;;;;;;;;;;16.30;99.90;;;-145.59;100.00;63944.34;5052386;28;19920;-66
2021/07/01 06:21:07;;;;;;;;;;;16.40;99.90;;;-145.59;100.00;63944.34;5052179;28;20391;-64
2021/07/01 06:23:32;;;;;;;;;;;16.50;99.90;;;-145.59;100.00;63944.34;5052094;28;19963;-65
2021/07/01 06:25:59;;;;;;;;;;;16.50;99.90;;;-145.59;100.00;63944.34;5019155;28;19960;-63
2021/07/01 06:28:29;;;;;;;;;;;16.50;99.90;;;-145.59;100.00;63944.34;5035782;28;19947;-65
2021/07/01 06:30:55;;;;;;;;;;;16.60;99.90;;;-145.59;100.00;63944.34;5052038;28;20004;-65
2021/07/01 06:33:22;;;;;;;;;;;16.60;99.90;;;-145.59;100.00;63944.34;5053549;28;19917;-62
2021/07/01 06:35:49;;;;;;;;;;;16.70;99.90;;;-145.59;100.00;63944.34;5035547;28;20334;-62
2021/07/01 06:38:18;;;;;;;;;;;16.80;99.90;;;-145.59;100.00;63944.34;5052121;28;20339;-64
2021/07/01 06:40:47;;;;;;;;;;;16.90;99.90;;;-145.59;100.00;63944.34;5035802;28;20011;-62
2021/07/01 06:43:14;;;;;;;;;;;17.20;99.90;;;-145.59;100.00;63944.34;5052216;28;20362;-62
2021/07/01 06:45:42;;;;;;;;;;;17.50;99.90;;;-145.59;100.00;63944.34;5036572;28;19917;-65
2021/07/01 06:48:08;;;;;;;;;;;17.80;99.90;;;-145.59;100.00;63944.34;5053104;28;19921;-66
2021/07/01 06:50:33;;;;;;;;;;;18.20;99.90;;;-145.59;100.00;63944.34;5052829;28;19917;-62
2021/07/01 06:52:59;;;;;;;;;;;18.50;99.90;;;-145.59;100.00;63944.34;5035987;28;19928;-64
2021/07/01 06:55:26;;;;;;;;;;;18.90;99.90;;;-145.59;100.00;63944.34;5018927;28;20021;-64
2021/07/01 06:57:53;;;;;;;;;;;19.30;99.90;;;-145.59;100.00;63944.34;5052051;28;20051;-71
2021/07/01 07:00:20;;;;;;;;;;;19.80;99.90;;;-145.59;100.00;63944.34;5052649;28;19921;-74
2021/07/01 07:02:46;;;;;;;;;;;20.30;99.90;;;-145.59;100.00;63944.34;5052006;28;19921;-72
2021/07/01 07:05:14;;;;;;;;;;;20.50;99.90;;;-145.59;100.00;63944.34;5052241;28;19917;-73
2021/07/01 07:07:41;;;;;;;;;;;20.60;99.90;;;-145.59;100.00;63944.34;5051973;28;19956;-72
2021/07/01 07:10:08;;;;;;;;;;;20.70;99.90;;;-145.59;100.00;63944.34;5052065;28;19925;-71
2021/07/01 07:12:42;;;;;;;;;;;20.70;99.90;;;-145.59;100.00;63944.34;5035468;28;19917;-74
2021/07/01 07:15:11;;;;;;;;;;;20.60;99.90;;;-145.59;100.00;63944.34;5051828;28;20000;-74
2021/07/01 07:17:38;;;;;;;;;;;20.50;99.90;;;-145.59;100.00;63944.34;5051684;28;20007;-74
2021/07/01 07:20:05;;;;;;;;;;;20.30;99.90;;;-145.59;100.00;63944.34;5051756;28;19971;-73
2021/07/01 07:22:42;;;;;;;;;;;20.20;99.90;;;-145.59;100.00;63944.34;5035318;28;20389;-72
2021/07/01 07:25:09;;;;;;;;;;;20.10;99.90;;;-145.59;100.00;63944.34;5036390;28;19917;-71
2021/07/01 07:27:38;;;;;;;;;;;20.20;99.90;;;-145.59;100.00;63944.34;5051812;28;19913;-74
2021/07/01 07:30:05;;;;;;;;;;;20.30;99.90;;;-145.59;100.00;63944.34;5051848;28;20267;-65
2021/07/01 07:32:31;;;;;;;;;;;20.30;99.90;;;-145.59;100.00;63944.34;5054570;28;19924;-65
2021/07/01 07:34:57;;;;;;;;;;;20.50;99.90;;;-145.59;100.00;63944.34;5038515;28;19921;-67
2021/07/01 07:37:23;;;;;;;;;;;20.40;99.90;;;-145.59;100.00;63944.34;5055436;28;19947;-62
2021/07/01 07:39:49;;;;;;;;;;;20.30;99.90;;;-145.59;100.00;63944.34;5038940;28;19929;-64
2021/07/01 07:42:16;;;;;;;;;;;20.20;99.90;;;-145.59;100.00;63944.34;5055482;28;19924;-66
2021/07/01 07:44:43;;;;;;;;;;;20.20;99.90;;;-145.59;100.00;63944.34;5055344;28;19952;-65
2021/07/01 07:47:14;;;;;;;;;;;20.30;99.90;;;-145.59;100.00;63944.34;5038460;28;20081;-64
2021/07/01 07:49:43;;;;;;;;;;;20.30;99.90;;;-145.59;100.00;63944.34;5054996;28;19928;-63
2021/07/01 07:52:11;;;;;;;;;;;20.50;99.90;;;-145.59;100.00;63944.34;5055265;28;19921;-65
2021/07/01 07:54:49;;;;;;;;;;;20.50;99.90;;;-145.59;100.00;63944.34;5038733;28;19917;-63
2021/07/01 07:57:17;;;;;;;;;;;20.60;99.90;;;-145.59;100.00;63944.34;5039344;28;20372;-65
2021/07/01 07:59:47;;;;;;;;;;;20.80;99.90;;;-145.59;100.00;63944.34;5054950;28;19916;-65
2021/07/01 08:02:29;;;;;;;;;;;21.20;99.90;;;-145.59;100.00;63944.34;5054956;28;20358;-65
2021/07/01 08:04:59;;;;;;;;;;;21.40;99.90;;;-145.59;100.00;63944.34;5054883;28;20451;-63
2021/07/01 08:07:25;;;;;;;;;;;21.60;99.90;;;-145.59;100.00;63944.34;5038715;28;19916;-68
2021/07/01 08:09:51;;;;;;;;;;;21.60;99.90;;;-145.59;100.00;63944.34;5037897;28;19931;-66
2021/07/01 08:12:17;;;;;;;;;;;21.70;99.90;;;-145.59;100.00;63944.34;5056270;28;19947;-65
2021/07/01 08:14:43;;;;;;;;;;;21.90;99.90;;;-145.59;100.00;63944.34;5054302;28;20011;-64
2021/07/01 08:17:12;;;;;;;;;;;21.80;99.90;;;-145.59;100.00;63944.34;5038354;28;19921;-65
2021/07/01 08:19:38;;;;;;;;;;;21.60;99.90;;;-145.59;100.00;63944.34;5038378;28;19921;-68
2021/07/01 08:22:05;;;;;;;;;;;21.50;99.90;;;-145.59;100.00;63944.34;5038176;28;19927;-64
2021/07/01 08:24:30;;;;;;;;;;;21.50;99.90;;;-145.59;100.00;63944.34;5021601;28;19921;-65
2021/07/01 08:26:57;;;;;;;;;;;21.40;99.90;;;-145.59;100.00;63944.34;5054469;28;19971;-66
2021/07/01 08:29:22;;;;;;;;;;;21.40;99.90;;;-145.59;100.00;63944.34;5054062;28;20008;-64
2021/07/01 08:31:48;;;;;;;;;;;21.40;99.90;;;-145.59;100.00;63944.34;5054114;28;19925;-62
2021/07/01 08:34:17;;;;;;;;;;;21.40;99.90;;;-145.59;100.00;63944.34;5054270;28;19923;-63
2021/07/01 08:36:46;;;;;;;;;;;21.40;99.90;;;-145.59;100.00;63944.34;5037431;28;19917;-63
2021/07/01 08:39:12;;;;;;;;;;;21.50;99.90;;;-145.59;100.00;63944.34;5037479;28;19940;-62
2021/07/01 08:41:41;;;;;;;;;;;21.40;99.90;;;-145.59;100.00;63944.34;5037523;28;19962;-63
2021/07/01 08:44:10;;;;;;;;;;;21.40;99.90;;;-145.59;100.00;63944.34;5052839;28;19920;-64
2021/07/01 08:47:08;;;;;;;;;;;21.40;99.90;;;-145.59;100.00;63944.34;5053930;28;19917;-64
2021/07/01 08:49:46;;;;;;;;;;;21.50;99.90;;;-145.59;100.00;63944.34;5039510;28;19917;-63
2021/07/01 08:52:13;;;;;;;;;;;21.50;99.90;;;-145.59;100.00;63944.34;5053890;28;19916;-65
2021/07/01 08:54:42;;;;;;;;;;;21.50;99.90;;;-145.59;100.00;63944.34;5053594;28;20328;-63
2021/07/01 08:57:13;;;;;;;;;;;21.50;99.90;;;-145.59;100.00;63944.34;5053765;28;19944;-64
2021/07/01 08:59:42;;;;;;;;;;;21.40;99.90;;;-145.59;100.00;63944.34;5054937;28;20424;-69
2021/07/01 09:02:11;;;;;;;;;;;21.70;99.90;;;-145.59;100.00;63944.34;5053637;28;19956;-68
2021/07/01 09:04:55;;;;;;;;;;;21.90;99.90;;;-145.59;100.00;63944.34;5053616;28;19986;-72
2021/07/01 09:07:22;;;;;;;;;;;22.10;99.90;;;-145.59;100.00;63944.34;5037582;28;19960;-71
2021/07/01 09:09:56;;;;;;;;;;;22.70;99.90;;;-145.59;100.00;63944.34;5053852;28;19943;-69
2021/07/01 09:12:26;;;;;;;;;;;23.30;99.90;;;-145.59;100.00;63944.34;5053359;28;20015;-72
2021/07/01 09:15:18;;;;;;;;;;;23.90;99.90;;;-145.59;100.00;63944.34;5036862;28;19924;-74
2021/07/01 09:17:52;;;;;;;;;;;25.10;99.90;;;-145.59;100.00;63944.34;5052164;28;19947;-66
2021/07/01 09:20:38;;;;;;;;;;;26.20;97.60;;;-145.59;100.00;63944.34;5053281;28;20386;-71
2021/07/01 09:23:09;;;;;;;;;;;27.10;96.90;;;-145.59;100.00;63944.34;5052906;28;19920;-66
2021/07/01 09:25:36;;;;;;;;;;;28.20;94.60;;;-145.59;100.00;63944.34;5053249;28;19917;-72
2021/07/01 09:28:02;;;;;;;;;;;28.80;94.70;;;-145.59;100.00;63944.34;5053344;28;19920;-66
2021/07/01 09:30:30;;;;;;;;;;;29.50;94.60;;;-145.59;100.00;63944.34;5053625;28;19917;-70
2021/07/01 09:33:04;;;;;;;;;;;29.80;93.20;;;-145.59;100.00;63944.34;5053037;28;19921;-68
2021/07/01 09:35:33;;;;;;;;;;;29.50;92.10;;;-145.59;100.00;63944.34;5053004;28;19924;-77
2021/07/01 09:38:00;;;;;;;;;;;29.20;93.50;;;-145.59;100.00;63944.34;5052651;28;19967;-70
2021/07/01 09:40:26;;;;;;;;;;;28.90;92.50;;;-145.59;100.00;63944.34;5039725;28;19924;-68
2021/07/01 09:42:53;;;;;;;;;;;29.00;92.90;;;-145.59;100.00;63944.34;5039556;28;19920;-72
2021/07/01 09:45:22;;;;;;;;;;;29.60;92.60;;;-145.59;100.00;63944.34;5056344;28;19920;-69
2021/07/01 09:47:53;;;;;;;;;;;30.30;92.00;;;-145.59;100.00;63944.34;5056435;28;19912;-68
2021/07/01 09:50:21;;;;;;;;;;;30.60;91.60;;;-145.59;100.00;63944.34;5056338;28;19927;-67
2021/07/01 09:52:48;;;;;;;;;;;30.50;91.00;;;-145.59;100.00;63944.34;5056829;28;19916;-68
2021/07/01 09:55:14;;;;;;;;;;;30.40;92.30;;;-145.59;100.00;63944.34;5056175;28;19950;-70
2021/07/01 09:57:44;;;;;;;;;;;30.00;90.90;;;-145.59;100.00;63944.34;5074524;28;19927;-67
2021/07/01 10:00:11;;;;;;;;;;;29.70;92.10;;;-145.59;100.00;63944.34;5039902;28;19970;-69
2021/07/01 10:02:37;;;;;;;;;;;29.00;91.50;;;-145.59;100.00;63944.34;5040517;28;19927;-70
2021/07/01 10:05:08;;;;;;;;;;;28.00;91.80;;;-145.59;100.00;63944.34;5040803;28;19917;-74
2021/07/01 10:07:34;;;;;;;;;;;27.20;93.40;;;-145.59;100.00;63944.34;5040092;28;19917;-68
2021/07/01 10:10:12;;;;;;;;;;;26.50;94.00;;;-145.59;100.00;63944.34;5023461;28;19974;-70
2021/07/01 10:12:56;;;;;;;;;;;26.40;94.50;;;-145.59;100.00;63944.34;5057119;28;19920;-70
2021/07/01 10:15:33;;;;;;;;;;;26.50;94.30;;;-145.59;100.00;63944.34;5057565;28;19916;-63
2021/07/01 10:18:02;;;;;;;;;;;26.60;94.30;;;-145.59;100.00;63944.34;5056276;28;19956;-65
2021/07/01 10:20:38;;;;;;;;;;;26.50;94.30;;;-145.59;100.00;63944.34;5074074;28;19912;-69
2021/07/01 10:23:18;;;;;;;;;;;26.80;94.90;;;-145.59;100.00;63944.34;5074194;28;19939;-70
2021/07/01 10:25:44;;;;;;;;;;;26.90;94.50;;;-145.59;100.00;63944.34;5074247;28;20271;-68
2021/07/01 10:28:11;;;;;;;;;;;27.20;94.90;;;-145.59;100.00;63944.34;5023159;28;19928;-79
2021/07/01 10:30:40;;;;;;;;;;;27.40;93.80;;;-145.59;100.00;63944.34;5056740;28;19962;-64
2021/07/01 10:33:20;;;;;;;;;;;27.40;93.40;;;-145.59;100.00;63944.34;5056840;28;19928;-69
2021/07/01 10:35:46;;;;;;;;;;;27.40;93.30;;;-145.59;100.00;63944.34;5058597;28;20367;-71
2021/07/01 10:38:13;;;;;;;;;;;27.40;93.50;;;-145.59;100.00;63944.34;5039455;28;19974;-78
2021/07/01 10:40:41;;;;;;;;;;;27.40;93.00;;;-145.59;100.00;63944.34;5056481;28;20298;-67
2021/07/01 10:43:08;;;;;;;;;;;27.10;92.70;;;-145.59;100.00;63944.34;5074465;28;19917;-65
2021/07/01 10:45:34;;;;;;;;;;;26.80;93.20;;;-145.59;100.00;63944.34;5089976;28;19967;-67
2021/07/01 10:48:14;;;;;;;;;;;26.60;94.30;;;-145.59;100.00;63944.34;5056757;28;19928;-70
2021/07/01 10:50:40;;;;;;;;;;;26.50;94.30;;;-145.59;100.00;63944.34;5075088;28;19917;-69
2021/07/01 10:53:24;;;;;;;;;;;26.80;94.80;;;-145.59;100.00;63944.34;5041189;28;19917;-66
2021/07/01 10:55:50;;;;;;;;;;;26.70;93.50;;;-145.59;100.00;63944.34;5057993;28;19921;-66
2021/07/01 10:58:17;;;;;;;;;;;26.20;93.40;;;-145.59;100.00;63944.34;5040919;28;20007;-65